Time;durP1;ratioP1;P1;durP2;ratioP2;P2;SDS_P1;SDS_P2;PMS_P1;PMS_P2;Temp;Humidity;BMP_temperature;BMP_pressure;BME280_temperature;BME280_humidity;BME280_pressure;Samples;Min_cycle;Max_cycle;Signal;HPM_P1;HPM_P2
2022/12/27 00:00:24;;;;;;;;;21.00;17.00;;;;;7.27;62.17;102262.03;5063109;28;45717;-58
2022/12/27 00:02:49;;;;;;;;;17.50;16.00;;;;;7.30;62.28;102272.56;5062810;28;45366;-58
2022/12/27 00:05:16;;;;;;;;;17.25;15.75;;;;;7.29;62.22;102268.19;5062461;28;45208;-58
2022/12/27 00:07:42;;;;;;;;;19.75;16.75;;;;;7.27;62.32;102266.38;5062776;28;45311;-58
2022/12/27 00:10:09;;;;;;;;;18.00;13.25;;;;;7.28;62.43;102270.75;5062772;28;45330;-58
2022/12/27 00:12:34;;;;;;;;;22.25;19.75;;;;;7.24;62.63;102271.53;5062467;28;45390;-57
2022/12/27 00:15:00;;;;;;;;;19.00;17.50;;;;;7.25;62.63;102274.19;5062757;28;45247;-58
2022/12/27 00:17:26;;;;;;;;;21.50;17.25;;;;;7.18;62.53;102255.72;5078063;28;45400;-57
2022/12/27 00:19:52;;;;;;;;;25.00;19.00;;;;;7.28;62.17;102276.00;5062451;28;45277;-58
2022/12/27 00:22:17;;;;;;;;;21.00;17.25;;;;;7.28;62.33;102279.50;5062478;28;45315;-57
2022/12/27 00:24:42;;;;;;;;;16.25;14.25;;;;;7.28;62.41;102284.75;5062360;28;45837;-58
2022/12/27 00:27:08;;;;;;;;;12.75;11.25;;;;;7.27;62.48;102289.91;5062278;28;45435;-58
2022/12/27 00:29:33;;;;;;;;;18.25;13.75;;;;;7.29;62.35;102293.47;5062613;28;45244;-58
2022/12/27 00:31:58;;;;;;;;;17.25;16.25;;;;;7.31;62.47;102289.16;5062430;28;45466;-57
2022/12/27 00:34:24;;;;;;;;;20.25;16.00;;;;;7.32;62.33;102290.94;5061988;28;46195;-58
2022/12/27 00:36:50;;;;;;;;;14.25;13.00;;;;;7.32;62.63;102293.56;5062499;28;45379;-57
2022/12/27 00:39:15;;;;;;;;;13.75;12.00;;;;;7.28;62.71;102296.91;5062350;28;45203;-57
2022/12/27 00:41:40;;;;;;;;;14.25;11.75;;;;;7.28;62.76;102292.59;5062163;28;45229;-57
2022/12/27 00:44:06;;;;;;;;;20.25;10.75;;;;;7.24;62.96;102300.31;5062045;28;46115;-57
2022/12/27 00:46:31;;;;;;;;;17.75;15.50;;;;;7.27;62.62;102287.28;5062141;28;45237;-57
2022/12/27 00:48:57;;;;;;;;;12.25;10.75;;;;;7.26;62.83;102290.78;5062074;28;45281;-58
2022/12/27 00:51:24;;;;;;;;;12.75;11.00;;;;;7.27;62.86;102292.53;5061007;28;45444;-57
2022/12/27 00:53:51;;;;;;;;;10.25;10.00;;;;;7.26;62.70;102298.63;5061998;28;45638;-58
2022/12/27 00:56:22;;;;;;;;;16.75;13.75;;;;;7.26;62.46;102298.63;5061791;28;45302;-58
2022/12/27 00:58:55;;;;;;;;;13.50;10.50;;;;;7.27;62.71;102303.00;5061898;28;45281;-58
2022/12/27 01:01:23;;;;;;;;;16.25;11.75;;;;;7.23;62.69;102302.06;5061700;28;46428;-58
2022/12/27 01:03:48;;;;;;;;;11.00;11.00;;;;;7.21;63.06;102302.84;5077220;28;45390;-57
2022/12/27 01:06:17;;;;;;;;;12.00;10.75;;;;;7.20;62.79;102301.09;5077249;28;45691;-58
2022/12/27 01:08:43;;;;;;;;;17.25;12.25;;;;;7.19;62.74;102309.78;5061940;28;45319;-58
2022/12/27 01:11:09;;;;;;;;;12.50;12.25;;;;;7.17;62.70;102307.13;5061401;28;45387;-57
2022/12/27 01:13:35;;;;;;;;;17.00;12.25;;;;;7.18;62.85;102308.00;5061578;28;45966;-58
2022/12/27 01:16:06;;;;;;;;;13.00;12.00;;;;;7.15;62.61;102309.69;5061563;28;45304;-57
2022/12/27 01:18:32;;;;;;;;;14.25;9.50;;;;;7.19;62.75;102312.38;5061595;28;45405;-58
2022/12/27 01:20:57;;;;;;;;;14.75;12.75;;;;;7.19;62.95;102315.00;5061345;28;45341;-58
2022/12/27 01:23:24;;;;;;;;;10.75;9.50;;;;;7.19;62.86;102315.88;5061569;28;45247;-57
2022/12/27 01:25:58;;;;;;;;;15.00;10.75;;;;;7.20;62.86;102314.16;5061269;28;45165;-58
2022/12/27 01:28:24;;;;;;;;;13.50;12.00;;;;;7.17;62.87;102322.81;5061414;28;45327;-58
2022/12/27 01:30:49;;;;;;;;;11.50;10.25;;;;;7.14;63.04;102312.25;5061372;28;45236;-57
2022/12/27 01:33:14;;;;;;;;;11.00;10.00;;;;;7.15;62.77;102322.75;5061004;28;46198;-58
2022/12/27 01:35:39;;;;;;;;;10.25;9.25;;;;;7.16;62.80;102326.28;5061382;28;45239;-57
2022/12/27 01:38:05;;;;;;;;;11.75;10.75;;;;;7.13;62.95;102316.63;5061405;27;45407;-58
2022/12/27 01:40:30;;;;;;;;;10.25;8.25;;;;;7.13;62.87;102321.84;5061344;28;45427;-58
2022/12/27 01:42:55;;;;;;;;;8.75;8.25;;;;;7.11;63.13;102318.31;5060994;28;47022;-58
2022/12/27 01:45:23;;;;;;;;;12.25;9.50;;;;;7.10;62.99;102326.13;5061153;28;45386;-57
2022/12/27 01:48:08;;;;;;;;;15.50;10.50;;;;;7.06;62.97;102322.53;5061361;28;45253;-58
2022/12/27 01:50:38;;;;;;;;;9.50;9.25;;;;;7.04;63.21;102318.97;5061063;28;45210;-57
2022/12/27 01:53:10;;;;;;;;;15.00;9.50;;;;;7.00;63.41;102328.47;5060720;28;45537;-58
2022/12/27 01:55:47;;;;;;;;;12.75;10.00;;;;;6.90;63.18;102309.91;5060790;28;45313;-57
2022/12/27 01:58:28;;;;;;;;;12.25;9.25;;;;;6.95;62.84;102337.94;5060986;28;45245;-58
2022/12/27 02:00:53;;;;;;;;;13.25;10.75;;;;;6.92;63.33;102337.84;5060821;28;45248;-58
2022/12/27 02:03:25;;;;;;;;;12.00;9.50;;;;;6.91;63.14;102337.81;5060421;28;45513;-58
2022/12/27 02:05:51;;;;;;;;;10.25;10.00;;;;;6.88;63.28;102336.03;5060771;28;45291;-58
2022/12/27 02:08:38;;;;;;;;;11.75;9.00;;;;;6.92;63.16;102344.81;5060877;28;45193;-58
2022/12/27 02:11:06;;;;;;;;;11.00;9.00;;;;;6.86;63.12;102334.22;5060612;28;45425;-57
2022/12/27 02:13:34;;;;;;;;;10.00;9.00;;;;;6.88;63.15;102333.41;5076222;28;47266;-58
2022/12/27 02:16:00;;;;;;;;;10.25;9.25;;;;;6.90;63.30;102349.13;5060500;28;45236;-57
2022/12/27 02:18:26;;;;;;;;;12.00;10.25;;;;;6.90;63.36;102346.50;5060736;28;45259;-57
2022/12/27 02:21:24;;;;;;;;;10.25;9.00;;;;;6.85;63.48;102356.81;5060538;28;45222;-58
2022/12/27 02:24:02;;;;;;;;;12.50;10.50;;;;;6.87;63.71;102347.31;5060653;28;45403;-58
2022/12/27 02:26:45;;;;;;;;;17.00;12.00;;;;;6.85;63.26;102348.97;5058070;28;45348;-57
2022/12/27 02:29:14;;;;;;;;;8.75;8.75;;;;;6.83;63.51;102343.72;5060619;28;45465;-57
2022/12/27 02:31:43;;;;;;;;;14.75;13.00;;;;;6.83;63.36;102343.72;5060413;28;45299;-58
2022/12/27 02:34:30;;;;;;;;;4.00;4.00;;;;;6.81;63.51;102339.31;5060057;28;46102;-58
2022/12/27 02:37:03;;;;;;;;;9.75;9.00;;;;;6.81;63.28;102334.94;5060234;28;45348;-58
2022/12/27 02:39:33;;;;;;;;;10.00;8.00;;;;;6.79;63.43;102326.19;5060852;28;45461;-57
2022/12/27 02:53:02;;;;;;;;;9.75;8.25;;;;;6.76;63.78;102320.00;5060333;28;45790;-57
2022/12/27 02:54:12;;;;;;;;;9.00;8.75;;;;;6.72;63.76;102323.38;5059879;28;45399;-58
2022/12/27 02:57:09;;;;;;;;;12.25;9.25;;;;;6.69;63.83;102321.53;5060215;28;46448;-58
2022/12/27 03:03:19;;;;;;;;;12.00;9.75;;;;;6.69;63.75;102329.38;5059974;28;45502;-58
2022/12/27 03:08:56;;;;;;;;;9.50;7.25;;;;;6.65;63.94;102346.72;5059837;28;45339;-58
2022/12/27 03:17:38;;;;;;;;;12.50;9.50;;;;;6.69;63.81;102355.50;5066656;28;45240;-58
2022/12/27 03:25:41;;;;;;;;;15.25;10.75;;;;;6.67;64.13;102352.88;5066331;28;45275;-58
2022/12/27 03:34:30;;;;;;;;;10.50;9.00;;;;;6.64;64.18;102364.94;5066142;28;45261;-58
2022/12/27 03:39:46;;;;;;;;;8.25;8.00;;;;;6.66;64.10;102363.28;5079560;28;45320;-58
2022/12/27 03:45:08;;;;;;;;;12.50;10.00;;;;;6.68;64.09;102353.78;5066141;28;45267;-57
2022/12/27 03:47:46;;;;;;;;;9.00;5.75;;;;;6.69;63.94;102354.63;5066511;28;45427;-58
2022/12/27 03:50:24;;;;;;;;;9.00;8.75;;;;;6.67;64.19;102360.69;5065928;28;45172;-57
2022/12/27 03:52:56;;;;;;;;;9.50;7.00;;;;;6.61;64.18;102352.69;5065782;28;45386;-58
2022/12/27 03:55:23;;;;;;;;;7.00;7.00;;;;;6.65;64.34;102353.66;5066056;28;45178;-58
2022/12/27 03:57:49;;;;;;;;;7.00;6.75;;;;;6.63;64.33;102345.78;5065996;28;45243;-57
2022/12/27 04:00:15;;;;;;;;;10.50;8.50;;;;;6.65;64.25;102353.66;5066047;28;45489;-58
2022/12/27 04:02:40;;;;;;;;;9.50;8.50;;;;;6.64;64.19;102352.78;5066164;28;46516;-58
2022/12/27 04:05:06;;;;;;;;;11.00;8.00;;;;;6.64;64.25;102347.56;5065632;28;45347;-58
2022/12/27 04:07:31;;;;;;;;;10.50;9.00;;;;;6.63;64.24;102343.19;5066183;28;45616;-58
2022/12/27 04:34:44;;;;;;;;;10.50;9.00;;;;;6.60;64.44;102360.50;5062244;28;45756;-58
2022/12/27 04:37:14;;;;;;;;;7.50;6.25;;;;;6.60;64.41;102365.72;5062406;28;45452;-58
2022/12/27 04:39:39;;;;;;;;;12.25;8.25;;;;;6.61;64.43;102362.28;5062332;28;45232;-58
2022/12/27 04:56:04;;;;;;;;;9.50;9.25;;;;;6.62;64.28;102361.44;5062019;28;45280;-57
2022/12/27 04:58:30;;;;;;;;;9.00;8.00;;;;;6.64;64.18;102358.03;5061839;28;45345;-57
2022/12/27 05:03:43;;;;;;;;;16.00;12.25;;;;;6.65;64.45;102353.66;5061905;28;45221;-57
2022/12/27 05:06:09;;;;;;;;;14.00;12.50;;;;;6.62;64.48;102353.59;5061459;28;46202;-57
2022/12/27 05:14:07;;;;;;;;;14.50;10.75;;;;;6.62;64.41;102357.09;5061730;28;45242;-57
2022/12/27 05:16:42;;;;;;;;;11.25;9.50;;;;;6.63;64.40;102350.16;5061427;28;46120;-57
2022/12/27 05:19:09;;;;;;;;;11.25;8.75;;;;;6.62;64.37;102354.47;5061400;28;45386;-57
2022/12/27 05:21:36;;;;;;;;;12.50;10.75;;;;;6.62;64.47;102356.22;5061704;28;45389;-58
2022/12/27 05:26:47;;;;;;;;;15.75;11.75;;;;;6.61;64.61;102359.66;5061078;28;45813;-58
2022/12/27 05:29:12;;;;;;;;;12.00;9.75;;;;;6.57;64.67;102349.97;5061315;28;45248;-58
2022/12/27 05:31:37;;;;;;;;;13.50;11.75;;;;;6.61;64.49;102357.03;5061676;28;45347;-58
2022/12/27 05:34:04;;;;;;;;;12.75;11.25;;;;;6.57;64.52;102355.19;5061140;28;45162;-57
2022/12/27 05:36:29;;;;;;;;;10.50;10.50;;;;;6.55;65.24;102354.25;5061397;28;45421;-58
2022/12/27 05:38:55;;;;;;;;;13.75;10.25;;;;;6.50;64.62;102355.03;5060911;28;45249;-58
2022/12/27 05:41:20;;;;;;;;;14.50;11.00;;;;;6.49;64.78;102350.63;5076873;28;45367;-57
2022/12/27 05:43:46;;;;;;;;;9.75;8.75;;;;;6.48;64.85;102367.13;5061389;28;45297;-57
2022/12/27 05:46:17;;;;;;;;;12.50;10.00;;;;;6.47;64.89;102367.97;5061151;28;46295;-58
2022/12/27 05:48:43;;;;;;;;;12.00;9.25;;;;;6.46;65.40;102362.72;5060936;28;45169;-58
2022/12/27 05:51:26;;;;;;;;;13.00;10.25;;;;;6.33;64.63;102346.69;5061211;28;45524;-58
2022/12/27 05:53:52;;;;;;;;;12.50;11.00;;;;;6.40;65.04;102363.44;5076729;28;45247;-57
2022/12/27 05:56:19;;;;;;;;;14.25;10.50;;;;;6.39;64.85;102350.31;5060867;28;46189;-57
2022/12/27 05:58:44;;;;;;;;;10.25;9.50;;;;;6.37;64.96;102342.44;5061098;28;45280;-58
2022/12/27 06:01:13;;;;;;;;;12.00;12.00;;;;;6.35;65.01;102341.50;5061117;28;45303;-58
2022/12/27 06:03:39;;;;;;;;;11.00;10.00;;;;;6.32;65.05;102333.59;5060794;28;45538;-58
2022/12/27 06:06:05;;;;;;;;;14.25;10.00;;;;;6.35;65.07;102323.22;5060772;28;45401;-57
2022/12/27 06:08:31;;;;;;;;;15.25;12.25;;;;;6.30;64.99;102328.34;5060971;28;45137;-58
2022/12/27 06:11:04;;;;;;;;;11.75;10.00;;;;;6.30;64.97;102332.66;5060697;28;45442;-57
2022/12/27 06:13:30;;;;;;;;;11.50;10.00;;;;;6.27;65.20;102335.19;5060977;28;45230;-57
2022/12/27 06:15:59;;;;;;;;;13.00;13.00;;;;;6.23;65.28;102336.81;5060536;28;45375;-58
2022/12/27 06:18:24;;;;;;;;;12.25;11.50;;;;;6.24;65.08;102329.84;5060698;28;45480;-57
2022/12/27 06:20:49;;;;;;;;;10.25;9.75;;;;;6.17;65.16;102329.69;5060711;28;45172;-58
2022/12/27 06:23:14;;;;;;;;;8.00;8.00;;;;;6.20;65.20;102318.47;5060936;28;45528;-58
2022/12/27 06:25:40;;;;;;;;;10.75;10.00;;;;;6.16;65.23;102330.53;5060321;28;46095;-58
2022/12/27 06:28:05;;;;;;;;;10.75;9.00;;;;;6.14;65.22;102327.00;5060377;28;45464;-58
2022/12/27 06:30:30;;;;;;;;;10.00;8.00;;;;;6.12;65.30;102326.06;5060702;28;45330;-57
2022/12/27 06:32:56;;;;;;;;;8.25;8.25;;;;;6.15;65.16;102336.59;5060365;28;45557;-57
2022/12/27 06:35:21;;;;;;;;;9.50;9.50;;;;;6.18;65.22;102326.22;5060467;28;45386;-57
2022/12/27 06:37:46;;;;;;;;;14.25;11.50;;;;;6.21;65.20;102327.19;5076206;28;45334;-57
2022/12/27 06:40:12;;;;;;;;;3.75;3.75;;;;;6.22;65.35;102327.22;5060667;28;45278;-57
2022/12/27 06:42:37;;;;;;;;;10.25;9.00;;;;;6.21;65.18;102321.97;5060860;27;45310;-58
2022/12/27 06:45:04;;;;;;;;;8.00;6.25;;;;;6.18;65.34;102326.22;5060050;28;45916;-57
2022/12/27 06:47:30;;;;;;;;;9.75;9.75;;;;;6.17;65.45;102334.91;5060453;28;45192;-57
2022/12/27 06:49:55;;;;;;;;;6.50;5.00;;;;;6.14;65.39;102332.22;5059290;28;45283;-57
2022/12/27 06:52:22;;;;;;;;;10.50;10.50;;;;;6.13;65.46;102329.56;5075816;28;45455;-57
2022/12/27 06:54:47;;;;;;;;;12.00;8.25;;;;;6.09;65.40;102322.47;5060035;28;46989;-57
2022/12/27 06:57:12;;;;;;;;;10.50;8.50;;;;;6.09;65.36;102333.81;5060182;28;45145;-57
2022/12/27 06:59:37;;;;;;;;;10.00;7.75;;;;;6.11;65.44;102331.22;5060238;28;45482;-58
2022/12/27 07:02:03;;;;;;;;;13.00;9.50;;;;;6.10;65.29;102325.16;5060113;28;45280;-58
2022/12/27 07:04:28;;;;;;;;;11.00;9.00;;;;;6.09;65.50;102325.97;5059730;28;46685;-58
2022/12/27 07:06:54;;;;;;;;;11.25;9.00;;;;;6.08;65.33;102320.72;5075662;28;45233;-58
2022/12/27 07:09:19;;;;;;;;;9.00;7.50;;;;;6.00;65.47;102334.41;5060242;28;45449;-58
2022/12/27 07:11:44;;;;;;;;;9.75;7.00;;;;;6.03;65.63;102325.78;5075612;28;45401;-58
2022/12/27 07:14:10;;;;;;;;;9.00;9.00;;;;;5.99;65.45;102329.16;5060128;28;45549;-58
2022/12/27 07:16:35;;;;;;;;;14.25;10.75;;;;;5.96;65.62;102334.22;5059741;28;45341;-58
2022/12/27 07:19:01;;;;;;;;;15.25;13.50;;;;;5.98;65.43;102348.22;5059688;28;45350;-58
2022/12/27 07:21:28;;;;;;;;;13.00;10.25;;;;;5.96;65.30;102349.88;5059934;28;45302;-58
2022/12/27 07:23:54;;;;;;;;;8.75;4.75;;;;;5.96;65.56;102350.78;5059710;28;46227;-58
2022/12/27 07:26:22;;;;;;;;;11.25;11.25;;;;;5.99;65.51;102355.25;5059435;28;45690;-58
2022/12/27 07:28:48;;;;;;;;;11.75;11.50;;;;;5.97;65.53;102359.50;5059720;28;45246;-58
2022/12/27 07:31:16;;;;;;;;;13.00;13.00;;;;;5.97;65.73;102365.59;5059680;28;45516;-58
2022/12/27 07:33:41;;;;;;;;;13.50;9.00;;;;;6.00;65.43;102362.25;5059423;28;46197;-58
2022/12/27 07:36:12;;;;;;;;;14.25;9.00;;;;;5.98;65.51;102361.28;5059630;28;45314;-58
2022/12/27 07:38:37;;;;;;;;;14.50;10.75;;;;;6.03;65.38;102361.47;5059623;28;45244;-58
2022/12/27 07:41:03;;;;;;;;;11.00;8.50;;;;;6.05;65.67;102363.28;5059383;28;45405;-58
2022/12/27 07:43:30;;;;;;;;;12.75;10.00;;;;;6.05;65.55;102363.28;5059444;28;45560;-58
2022/12/27 07:46:12;;;;;;;;;8.75;8.75;;;;;6.06;65.53;102365.03;5059626;28;45454;-58
2022/12/27 07:48:39;;;;;;;;;13.00;9.25;;;;;6.07;65.40;102358.09;5074823;28;45325;-58
2022/12/27 07:51:04;;;;;;;;;10.25;10.00;;;;;6.11;65.55;102357.34;5059244;28;45380;-58
2022/12/27 07:53:30;;;;;;;;;13.50;8.50;;;;;6.13;65.35;102363.50;5059029;28;45501;-58
2022/12/27 07:55:56;;;;;;;;;15.00;11.00;;;;;6.06;65.69;102351.09;5074942;28;45339;-58
2022/12/27 07:58:21;;;;;;;;;11.75;11.50;;;;;6.10;65.60;102361.69;5059638;28;45259;-58
2022/12/27 08:00:49;;;;;;;;;11.25;10.00;;;;;6.11;65.64;102362.56;5060761;28;45506;-58
2022/12/27 08:03:15;;;;;;;;;15.00;13.75;;;;;6.15;65.72;102367.03;5062324;28;47089;-58
2022/12/27 08:05:52;;;;;;;;;17.00;14.00;;;;;6.15;65.64;102362.72;5062702;28;45518;-59
2022/12/27 08:08:21;;;;;;;;;14.25;11.25;;;;;6.17;65.68;102366.22;5062807;28;45363;-58
2022/12/27 08:10:47;;;;;;;;;9.75;8.50;;;;;6.17;65.76;102370.56;5062638;28;45564;-58
2022/12/27 08:13:12;;;;;;;;;14.75;11.50;;;;;6.18;65.71;102361.91;5062431;28;45434;-58
2022/12/27 08:15:40;;;;;;;;;10.00;8.25;;;;;6.17;65.64;102373.19;5078374;28;45351;-58
2022/12/27 08:18:06;;;;;;;;;13.50;9.25;;;;;6.17;65.37;102371.44;5078257;28;45210;-58
2022/12/27 08:20:31;;;;;;;;;11.50;11.00;;;;;6.18;65.80;102375.84;5062571;28;45558;-58
2022/12/27 08:22:56;;;;;;;;;11.00;9.25;;;;;6.18;65.80;102373.22;5062409;28;46247;-58
2022/12/27 08:25:22;;;;;;;;;14.50;12.25;;;;;6.23;65.57;102378.59;5066022;28;45305;-58
2022/12/27 08:27:47;;;;;;;;;8.75;8.75;;;;;6.23;65.73;102373.38;5059940;28;45410;-58
2022/12/27 08:30:13;;;;;;;;;15.25;12.00;;;;;6.26;65.70;102375.19;5062509;28;45492;-59
2022/12/27 08:32:38;;;;;;;;;17.25;15.00;;;;;6.24;65.70;102377.75;5062237;28;45228;-58
2022/12/27 08:35:04;;;;;;;;;12.50;12.50;;;;;6.19;65.70;102381.97;5062194;28;45205;-58
2022/12/27 08:37:29;;;;;;;;;13.50;13.00;;;;;6.21;65.87;102380.25;5062435;28;45283;-58
2022/12/27 08:39:55;;;;;;;;;16.00;12.00;;;;;6.23;65.90;102386.44;5062354;28;45550;-58
2022/12/27 08:42:20;;;;;;;;;13.25;10.00;;;;;6.26;65.74;102385.63;5061883;28;46088;-58
2022/12/27 08:44:45;;;;;;;;;12.50;10.00;;;;;6.29;65.95;102385.72;5062177;28;45327;-58
2022/12/27 08:47:11;;;;;;;;;14.75;14.75;;;;;6.28;65.91;102391.78;5062072;28;45402;-58
2022/12/27 08:49:36;;;;;;;;;15.25;14.25;;;;;6.29;65.74;102390.94;5061926;28;45569;-58
2022/12/27 08:52:01;;;;;;;;;15.25;12.50;;;;;6.25;66.06;102389.97;5061528;28;46185;-58
2022/12/27 08:54:27;;;;;;;;;14.25;12.00;;;;;6.26;65.83;102385.63;5077696;27;45339;-59
2022/12/27 08:56:52;;;;;;;;;13.00;12.25;;;;;6.25;65.55;102387.38;5060651;28;45398;-58
2022/12/27 08:59:17;;;;;;;;;15.25;11.50;;;;;6.28;66.02;102391.78;5062294;28;45349;-58
2022/12/27 09:01:43;;;;;;;;;14.25;12.50;;;;;6.28;66.03;102392.66;5061654;28;45288;-58
2022/12/27 09:04:08;;;;;;;;;13.50;12.75;;;;;6.30;66.16;102392.72;5060334;28;45441;-58
2022/12/27 09:06:33;;;;;;;;;14.75;13.25;;;;;6.34;66.04;102389.38;5061823;28;45339;-58
2022/12/27 09:09:00;;;;;;;;;15.75;12.50;;;;;6.33;66.00;102387.59;5061876;28;45336;-57
2022/12/27 09:11:28;;;;;;;;;14.50;13.00;;;;;6.33;65.94;102392.81;5061324;28;47109;-57
2022/12/27 09:13:54;;;;;;;;;18.25;15.00;;;;;6.37;65.95;102397.28;5060036;28;45290;-57
2022/12/27 09:16:23;;;;;;;;;14.75;12.25;;;;;6.41;65.90;102388.69;5060310;28;45288;-57
2022/12/27 09:18:51;;;;;;;;;14.25;14.25;;;;;6.41;65.98;102391.31;5061380;28;45515;-57
2022/12/27 09:21:18;;;;;;;;;13.75;10.75;;;;;6.47;65.87;102391.47;5061447;28;46209;-57
2022/12/27 09:23:43;;;;;;;;;11.50;10.00;;;;;6.43;66.12;102392.25;5061508;28;45543;-57
2022/12/27 09:26:20;;;;;;;;;17.25;14.00;;;;;6.47;65.68;102398.44;5056527;28;45308;-57
2022/12/27 09:28:48;;;;;;;;;16.00;15.25;;;;;6.48;65.95;102385.41;5054922;28;45363;-57
2022/12/27 09:31:14;;;;;;;;;18.25;15.25;;;;;6.54;66.10;102394.28;5060136;28;47392;-57
2022/12/27 09:33:40;;;;;;;;;11.75;10.75;;;;;6.54;66.06;102392.56;5061106;28;45323;-58
2022/12/27 09:36:07;;;;;;;;;18.50;14.50;;;;;6.57;65.85;102397.00;5048152;28;45303;-57
2022/12/27 09:38:34;;;;;;;;;16.25;10.50;;;;;6.60;66.00;102399.69;5061294;28;45246;-58
2022/12/27 09:41:02;;;;;;;;;17.25;15.50;;;;;6.60;65.98;102389.22;5061290;28;45291;-58
2022/12/27 09:43:40;;;;;;;;;17.75;16.00;;;;;6.61;66.04;102394.50;5061066;28;45389;-58
2022/12/27 09:46:15;;;;;;;;;18.75;17.75;;;;;6.66;66.11;102392.03;5061307;28;45315;-57
2022/12/27 09:48:40;;;;;;;;;18.00;16.00;;;;;6.69;66.08;102410.38;5060843;28;45256;-57
2022/12/27 09:51:25;;;;;;;;;18.75;17.00;;;;;6.70;66.27;102406.94;5060948;28;46927;-58
2022/12/27 09:54:10;;;;;;;;;22.25;18.00;;;;;6.77;66.08;102408.88;5059856;28;45241;-57
2022/12/27 09:56:36;;;;;;;;;18.25;15.50;;;;;6.91;66.23;102414.50;5059797;28;45338;-57
2022/12/27 09:59:05;;;;;;;;;19.50;19.50;;;;;7.00;65.98;102414.72;5061051;28;45245;-57
2022/12/27 10:01:33;;;;;;;;;18.00;17.00;;;;;7.04;66.14;102407.88;5060758;28;45358;-57
2022/12/27 10:04:00;;;;;;;;;22.00;18.50;;;;;7.10;66.29;102410.66;5060621;28;45327;-57
2022/12/27 10:06:28;;;;;;;;;25.75;19.25;;;;;7.27;66.23;102413.72;5059531;28;45398;-57
2022/12/27 10:09:24;;;;;;;;;21.75;19.50;;;;;7.39;66.15;102399.19;5060792;28;45224;-59
2022/12/27 10:12:21;;;;;;;;;18.00;17.00;;;;;7.45;66.13;102400.22;5060597;28;45535;-58
2022/12/27 10:15:01;;;;;;;;;21.25;21.00;;;;;7.61;65.98;102397.97;5060655;28;45334;-57
2022/12/27 10:17:47;;;;;;;;;18.50;17.00;;;;;7.71;66.28;102393.84;5060703;28;45287;-57
2022/12/27 10:20:29;;;;;;;;;15.75;13.50;;;;;7.87;66.11;102397.75;5076166;28;45572;-57
2022/12/27 10:23:03;;;;;;;;;20.50;18.50;;;;;7.93;66.12;102387.41;5060479;28;45751;-57
2022/12/27 10:25:29;;;;;;;;;18.00;17.25;;;;;8.03;66.12;102386.75;5058948;28;45337;-57
2022/12/27 10:28:13;;;;;;;;;18.75;18.00;;;;;8.12;66.06;102386.09;5060313;28;45395;-57
2022/12/27 10:30:39;;;;;;;;;20.00;15.25;;;;;8.28;65.98;102385.56;5060546;28;45327;-57
2022/12/27 10:33:04;;;;;;;;;20.00;15.50;;;;;8.27;65.87;102369.81;5060100;28;46225;-57
2022/12/27 10:35:30;;;;;;;;;15.00;13.00;;;;;8.51;65.84;102385.19;5060435;28;45419;-57
2022/12/27 10:37:57;;;;;;;;;18.25;17.75;;;;;8.60;65.99;102381.88;5060704;28;45384;-57
2022/12/27 10:40:33;;;;;;;;;20.75;16.75;;;;;8.72;65.90;102378.66;5076097;28;45212;-58
2022/12/27 10:43:03;;;;;;;;;16.50;14.00;;;;;8.81;66.05;102372.69;5060084;28;46415;-57
2022/12/27 10:45:33;;;;;;;;;15.50;14.50;;;;;8.93;66.37;102367.66;5075749;28;45389;-57
2022/12/27 10:48:22;;;;;;;;;15.50;14.25;;;;;9.07;65.86;102365.31;5060200;28;45304;-57
2022/12/27 10:50:55;;;;;;;;;16.00;15.00;;;;;9.17;66.01;102369.88;5060419;28;45530;-57
2022/12/27 10:53:29;;;;;;;;;16.25;14.50;;;;;9.26;65.91;102359.53;5059738;28;45438;-57
2022/12/27 10:56:10;;;;;;;;;15.25;12.00;;;;;9.36;66.04;102359.69;5075643;27;45276;-57
2022/12/27 10:58:38;;;;;;;;;13.75;13.75;;;;;9.49;65.82;102368.66;5060072;28;45504;-58
2022/12/27 11:01:03;;;;;;;;;14.00;13.50;;;;;9.64;65.44;102363.63;5060113;28;45434;-57
2022/12/27 11:03:29;;;;;;;;;17.75;17.25;;;;;9.84;64.96;102370.94;5059436;28;46341;-57
2022/12/27 11:06:04;;;;;;;;;17.00;16.75;;;;;9.96;65.28;102370.22;5060067;28;45154;-57
2022/12/27 11:08:30;;;;;;;;;18.25;16.25;;;;;10.04;65.39;102371.22;5059961;28;45279;-57
2022/12/27 11:11:20;;;;;;;;;13.75;10.50;;;;;10.23;64.93;102370.59;5059701;28;45389;-57
2022/12/27 11:13:46;;;;;;;;;14.75;14.75;;;;;10.35;64.90;102369.00;5059966;28;45932;-57
2022/12/27 11:16:17;;;;;;;;;15.00;15.00;;;;;10.48;65.02;102370.09;5059759;28;45306;-57
2022/12/27 11:18:47;;;;;;;;;16.00;13.50;;;;;10.63;65.21;102364.09;5059676;28;45602;-57
2022/12/27 11:21:15;;;;;;;;;19.00;15.50;;;;;10.81;64.98;102355.56;5059700;28;45244;-57
2022/12/27 11:23:47;;;;;;;;;12.75;9.00;;;;;10.96;64.60;102355.69;5059699;28;46404;-57
2022/12/27 11:26:20;;;;;;;;;17.75;16.75;;;;;11.12;64.51;102353.22;5059289;28;45262;-57
2022/12/27 11:28:53;;;;;;;;;26.25;22.25;;;;;11.18;64.81;102340.09;5060032;28;45423;-57
2022/12/27 11:31:36;;;;;;;;;22.25;18.00;;;;;11.32;64.86;102330.59;5059768;28;45323;-57
2022/12/27 11:34:07;;;;;;;;;15.50;12.75;;;;;11.52;64.42;102329.84;5059351;28;46130;-58
2022/12/27 11:36:41;;;;;;;;;21.50;17.50;;;;;11.63;64.56;102330.81;5062265;28;45295;-57
2022/12/27 11:39:27;;;;;;;;;12.50;12.50;;;;;11.77;64.45;102324.75;5063363;28;45443;-57
2022/12/27 11:41:55;;;;;;;;;15.00;13.00;;;;;11.91;64.35;102311.66;5062874;28;45321;-57
2022/12/27 11:44:23;;;;;;;;;14.50;12.75;;;;;12.04;64.72;102305.63;5063465;27;45430;-57
2022/12/27 11:47:05;;;;;;;;;11.00;10.25;;;;;12.17;64.31;102294.25;5062928;28;45803;-57
2022/12/27 11:49:57;;;;;;;;;12.75;11.75;;;;;12.31;64.15;102278.50;5063125;28;45559;-57
2022/12/27 11:53:00;;;;;;;;;13.75;12.50;;;;;12.46;64.30;102288.19;5062869;28;45193;-56
2022/12/27 11:55:37;;;;;;;;;10.50;9.50;;;;;12.63;64.18;102288.25;5005975;28;45390;-56
2022/12/27 11:58:13;;;;;;;;;11.50;9.25;;;;;12.80;63.55;102295.28;5056086;28;45377;-58
2022/12/27 12:00:56;;;;;;;;;8.00;7.75;;;;;12.89;63.57;102287.38;5063280;28;45261;-57
2022/12/27 12:04:05;;;;;;;;;6.50;4.50;;;;;13.05;63.42;102292.69;5078285;28;45335;-58
2022/12/27 12:07:08;;;;;;;;;13.50;11.00;;;;;13.12;63.71;102283.91;5062487;28;45492;-58
2022/12/27 12:09:57;;;;;;;;;13.50;9.00;;;;;13.21;63.50;102280.38;5062693;28;45314;-58
2022/12/27 12:12:44;;;;;;;;;12.50;10.25;;;;;13.30;63.43;102286.50;5062638;28;45327;-59
2022/12/27 12:15:29;;;;;;;;;9.50;7.75;;;;;13.42;63.01;102290.03;5062692;28;45308;-58
2022/12/27 12:18:00;;;;;;;;;11.00;9.00;;;;;13.49;62.85;102290.03;5062141;28;45622;-58
2022/12/27 12:20:40;;;;;;;;;11.25;8.50;;;;;13.51;63.88;102290.03;5062659;28;45547;-57
2022/12/27 12:23:25;;;;;;;;;7.00;5.00;;;;;13.54;62.99;102291.81;5062582;28;45287;-58
2022/12/27 12:25:53;;;;;;;;;10.00;8.50;;;;;13.58;63.08;102288.25;5077772;28;45728;-58
2022/12/27 12:28:36;;;;;;;;;9.50;7.50;;;;;13.57;63.22;102279.47;5062318;28;46352;-57
2022/12/27 12:31:20;;;;;;;;;8.00;8.00;;;;;13.54;63.32;102291.81;5077776;28;45253;-57
2022/12/27 12:33:53;;;;;;;;;8.00;8.00;;;;;13.56;63.03;102283.00;5062283;28;45285;-57
2022/12/27 12:36:47;;;;;;;;;9.75;8.75;;;;;13.67;62.62;102263.59;5062413;28;45355;-57
2022/12/27 12:39:22;;;;;;;;;8.25;7.50;;;;;13.61;62.59;102262.72;5062080;28;46075;-57
2022/12/27 12:42:02;;;;;;;;;13.00;10.75;;;;;13.60;63.08;102254.81;5077662;28;45340;-58
2022/12/27 12:44:47;;;;;;;;;11.00;10.50;;;;;13.63;62.37;102250.41;5062412;28;45252;-57
2022/12/27 12:47:15;;;;;;;;;12.50;7.50;;;;;13.66;62.89;102249.50;5060654;28;45234;-58
2022/12/27 12:49:49;;;;;;;;;9.50;7.50;;;;;13.64;62.79;102248.63;5061943;28;46375;-58
2022/12/27 12:52:17;;;;;;;;;8.75;7.00;;;;;13.70;61.96;102239.78;5061866;28;45347;-57
2022/12/27 12:54:56;;;;;;;;;10.00;7.25;;;;;13.77;61.54;102226.56;5062050;28;45335;-58
2022/12/27 12:57:36;;;;;;;;;7.50;7.00;;;;;13.76;61.52;102223.91;5062077;28;45225;-57
2022/12/27 13:00:11;;;;;;;;;7.75;7.00;;;;;13.86;61.05;102215.09;5061827;28;45299;-58
2022/12/27 13:02:48;;;;;;;;;8.75;7.75;;;;;13.88;61.06;102213.28;5061453;28;45408;-58